createdAt,value
2019-03-05T00:00:26.525Z,79.46
2019-03-05T00:02:54.872Z,76.66
2019-03-05T00:05:23.431Z,75.82
2019-03-05T00:07:51.678Z,75.41
2019-03-05T00:10:20.203Z,73.89
2019-03-05T00:12:48.438Z,72.69
2019-03-05T00:15:19.313Z,73.33
2019-03-05T00:17:47.540Z,72.74
2019-03-05T00:20:15.769Z,72.87
2019-03-05T00:22:44.003Z,72.08
2019-03-05T00:25:24.495Z,72.62
2019-03-05T00:28:01.687Z,72.41
2019-03-05T00:30:48.208Z,72.80
2019-03-05T00:33:42.356Z,74.40
2019-03-05T00:36:16.666Z,73.20
2019-03-05T00:39:06.341Z,72.81
2019-03-05T00:41:58.206Z,74.34
2019-03-05T00:45:03.034Z,73.05
2019-03-05T00:47:55.091Z,73.97
2019-03-05T00:50:35.530Z,73.32
2019-03-05T00:53:16.027Z,73.88
2019-03-05T00:56:05.732Z,73.76
2019-03-05T00:58:40.195Z,72.80
2019-03-05T01:01:23.011Z,72.39
2019-03-05T01:04:03.068Z,72.18
2019-03-05T01:06:31.742Z,72.15
2019-03-05T01:09:00.049Z,73.15
2019-03-05T01:11:28.624Z,72.63
2019-03-05T01:13:56.927Z,72.46
2019-03-05T01:16:27.078Z,72.04
2019-03-05T01:18:55.303Z,71.90
2019-03-05T01:21:23.550Z,72.14
2019-03-05T01:23:51.782Z,72.65
2019-03-05T01:26:20.305Z,73.46
2019-03-05T01:28:48.538Z,72.59
2019-03-05T01:31:34.823Z,72.80
2019-03-05T01:34:16.690Z,72.88
2019-03-05T01:36:46.567Z,73.16
2019-03-05T01:39:32.550Z,73.22
2019-03-05T01:42:00.824Z,73.13
2019-03-05T01:44:29.056Z,73.24
2019-03-05T01:46:57.298Z,73.23
2019-03-05T01:49:25.527Z,74.76
2019-03-05T01:51:54.215Z,75.19
2019-03-05T01:54:22.450Z,73.53
2019-03-05T01:56:50.677Z,74.26
2019-03-05T01:59:19.143Z,73.90
2019-03-05T02:01:47.370Z,73.21
2019-03-05T02:04:15.604Z,73.33
2019-03-05T02:06:43.832Z,72.88
2019-03-05T02:09:12.436Z,73.64
2019-03-05T02:11:40.664Z,74.75
2019-03-05T02:14:08.969Z,74.49
2019-03-05T02:16:37.190Z,74.55
2019-03-05T02:19:36.939Z,74.15
2019-03-05T02:22:08.023Z,75.29
2019-03-05T02:24:48.244Z,75.68
2019-03-05T02:27:27.932Z,74.24
2019-03-05T02:30:02.464Z,74.55
2019-03-05T02:32:39.581Z,76.88
2019-03-05T02:35:16.626Z,76.25
2019-03-05T02:38:08.700Z,76.44
2019-03-05T02:40:45.808Z,76.74
2019-03-05T02:43:26.112Z,77.91
2019-03-05T02:46:06.119Z,77.32
2019-03-05T02:48:55.320Z,77.88
2019-03-05T02:51:26.716Z,77.52
2019-03-05T02:54:14.609Z,78.13
2019-03-05T02:56:46.005Z,78.46
2019-03-05T02:59:13.209Z,78.23
2019-03-05T03:01:51.769Z,78.04
2019-03-05T03:04:21.638Z,78.08
2019-03-05T03:06:50.096Z,78.29
2019-03-05T03:09:29.901Z,78.83
2019-03-05T03:11:58.211Z,77.83
2019-03-05T03:14:26.673Z,78.36
2019-03-05T03:16:55.121Z,77.52
2019-03-05T03:19:23.356Z,77.43
2019-03-05T03:21:51.584Z,77.57
2019-03-05T03:24:19.824Z,77.91
2019-03-05T03:26:48.052Z,76.20
2019-03-05T03:29:16.517Z,76.65
2019-03-05T03:31:44.744Z,77.11
2019-03-05T03:34:13.210Z,76.40
2019-03-05T03:36:41.431Z,77.34
2019-03-05T03:39:09.676Z,77.54
2019-03-05T03:41:37.903Z,76.37
2019-03-05T03:44:06.366Z,77.72
2019-03-05T03:46:34.827Z,75.73
2019-03-05T03:49:03.281Z,77.11
2019-03-05T03:51:31.523Z,76.51
2019-03-05T03:53:59.972Z,76.43
2019-03-05T03:56:28.431Z,76.50
2019-03-05T03:58:56.666Z,76.73
2019-03-05T04:01:24.905Z,77.14
2019-03-05T04:03:53.354Z,77.49
2019-03-05T04:06:21.583Z,77.71
2019-03-05T04:08:50.045Z,77.15
2019-03-05T04:11:18.293Z,77.24
2019-03-05T04:13:46.511Z,77.42
2019-03-05T04:16:14.745Z,78.47
2019-03-05T04:18:42.966Z,77.84
2019-03-05T04:21:11.204Z,78.27
2019-03-05T04:23:39.428Z,79.04
2019-03-05T04:26:07.884Z,79.24
2019-03-05T04:28:36.107Z,79.37
2019-03-05T04:31:04.339Z,79.07
2019-03-05T04:33:32.809Z,79.52
2019-03-05T04:36:01.258Z,79.43
2019-03-05T04:38:29.496Z,79.32
2019-03-05T04:40:57.717Z,80.03
2019-03-05T04:43:25.953Z,78.78
2019-03-05T04:46:01.750Z,79.07
2019-03-05T04:48:30.227Z,78.83
2019-03-05T04:51:00.084Z,78.63
2019-03-05T04:53:28.318Z,78.80
2019-03-05T04:55:56.544Z,79.37
2019-03-05T04:58:24.781Z,78.52
2019-03-05T05:00:56.285Z,78.41
2019-03-05T05:03:24.528Z,78.03
2019-03-05T05:05:52.754Z,78.12
2019-03-05T05:08:20.989Z,78.37
2019-03-05T05:10:49.220Z,78.32
2019-03-05T05:13:17.450Z,78.33
2019-03-05T05:15:45.674Z,78.27
2019-03-05T05:18:13.913Z,78.50
2019-03-05T05:20:42.141Z,78.69
2019-03-05T05:23:10.371Z,78.76
2019-03-05T05:25:38.826Z,78.95
2019-03-05T05:28:07.051Z,79.04
2019-03-05T05:30:39.652Z,79.00
2019-03-05T05:33:08.660Z,79.33
2019-03-05T05:35:36.951Z,79.49
2019-03-05T05:38:05.243Z,79.75
2019-03-05T05:40:35.885Z,79.40
2019-03-05T05:43:05.798Z,79.66
2019-03-05T05:45:45.003Z,79.65
2019-03-05T05:48:13.231Z,79.87
2019-03-05T05:50:41.467Z,79.67
2019-03-05T05:53:09.919Z,78.41
2019-03-05T05:55:38.153Z,78.15
2019-03-05T05:58:06.381Z,77.74
2019-03-05T06:00:36.255Z,78.07
2019-03-05T06:03:04.711Z,77.95
2019-03-05T06:05:33.170Z,77.78
2019-03-05T06:08:01.397Z,77.79
2019-03-05T06:10:29.633Z,77.69
2019-03-05T06:12:57.865Z,77.94
2019-03-05T06:15:26.102Z,77.88
2019-03-05T06:17:54.322Z,77.94
2019-03-05T06:20:22.560Z,77.64
2019-03-05T06:22:50.784Z,77.17
2019-03-05T06:25:19.251Z,77.16
2019-03-05T06:27:47.699Z,77.17
2019-03-05T06:30:23.102Z,77.41
2019-03-05T06:32:51.336Z,77.05
2019-03-05T06:35:19.581Z,76.69
2019-03-05T06:37:47.799Z,76.62
2019-03-05T06:40:17.794Z,76.53
2019-03-05T06:42:46.253Z,76.17
2019-03-05T06:45:16.315Z,76.50
2019-03-05T06:47:44.555Z,76.01
2019-03-05T06:50:14.647Z,76.00
2019-03-05T06:52:43.106Z,75.59
2019-03-05T06:55:13.073Z,75.75
2019-03-05T06:57:41.307Z,75.41
2019-03-05T07:00:22.487Z,75.25
2019-03-05T07:02:50.949Z,75.29
2019-03-05T07:05:55.434Z,74.94
2019-03-05T07:08:23.887Z,74.82
2019-03-05T07:11:01.522Z,74.59
2019-03-05T07:13:30.700Z,74.56
2019-03-05T07:16:02.081Z,74.92
2019-03-05T07:18:36.564Z,74.41
2019-03-05T07:21:32.857Z,74.62
2019-03-05T07:24:16.083Z,74.16
2019-03-05T07:26:44.318Z,74.26
2019-03-05T07:29:12.543Z,73.96
2019-03-05T07:31:40.789Z,74.02
2019-03-05T07:34:10.977Z,73.57
2019-03-05T07:36:39.226Z,72.87
2019-03-05T07:39:10.634Z,72.96
2019-03-05T07:41:39.198Z,72.31
2019-03-05T07:44:07.433Z,71.81
2019-03-05T07:46:35.740Z,71.73
2019-03-05T07:49:04.235Z,71.85
2019-03-05T07:51:32.462Z,71.74
2019-03-05T07:54:01.003Z,71.13
2019-03-05T07:56:29.224Z,71.03
2019-03-05T07:58:57.693Z,71.13
2019-03-05T08:01:25.927Z,71.19
2019-03-05T08:03:54.157Z,70.84
2019-03-05T08:06:22.387Z,70.36
2019-03-05T08:09:27.412Z,70.29
2019-03-05T08:12:01.531Z,70.53
2019-03-05T08:14:38.866Z,70.56
2019-03-05T08:17:07.478Z,70.51
2019-03-05T08:19:35.728Z,70.51
2019-03-05T08:22:04.830Z,70.00
2019-03-05T08:24:33.075Z,70.36
2019-03-05T08:27:01.311Z,70.22
2019-03-05T08:29:29.547Z,69.92
2019-03-05T08:31:58.087Z,69.88
2019-03-05T08:34:26.325Z,70.44
2019-03-05T08:36:54.590Z,70.50
2019-03-05T08:39:23.131Z,69.83
2019-03-05T08:41:51.364Z,70.61
2019-03-05T08:44:19.974Z,70.90
2019-03-05T08:46:48.206Z,70.92
2019-03-05T08:49:17.973Z,70.89
2019-03-05T08:51:46.245Z,70.65
2019-03-05T08:54:14.488Z,70.58
2019-03-05T08:56:42.723Z,70.34
2019-03-05T08:59:11.188Z,70.11
2019-03-05T09:01:39.418Z,70.36
2019-03-05T09:04:07.891Z,69.93
2019-03-05T09:06:36.186Z,69.75
2019-03-05T09:09:06.532Z,69.90
2019-03-05T09:11:34.762Z,70.96
2019-03-05T09:14:03.021Z,71.84
2019-03-05T09:16:31.487Z,71.78
2019-03-05T09:18:59.721Z,72.63
2019-03-05T09:21:27.958Z,72.55
2019-03-05T09:23:56.197Z,74.34
2019-03-05T09:26:24.441Z,74.55
2019-03-05T09:28:52.673Z,74.97
2019-03-05T09:31:20.914Z,75.53
2019-03-05T09:33:49.430Z,76.49
2019-03-05T09:36:18.007Z,77.41
2019-03-05T09:38:46.459Z,78.19
2019-03-05T09:41:14.698Z,77.56
2019-03-05T09:43:42.935Z,77.58
2019-03-05T09:46:11.427Z,77.89
2019-03-05T09:48:39.663Z,78.13
2019-03-05T09:51:08.183Z,77.54
2019-03-05T09:53:36.416Z,78.09
2019-03-05T09:56:05.697Z,77.76
2019-03-05T09:58:33.994Z,77.99
2019-03-05T10:01:02.478Z,77.47
2019-03-05T10:03:30.700Z,78.18
2019-03-05T10:05:58.947Z,77.75
2019-03-05T10:08:32.365Z,77.56
2019-03-05T10:10:57.133Z,77.36
2019-03-05T10:13:25.393Z,77.55
2019-03-05T10:15:53.885Z,76.99
2019-03-05T10:18:22.366Z,77.13
2019-03-05T10:20:50.888Z,77.39
2019-03-05T10:23:19.128Z,76.39
2019-03-05T10:25:47.351Z,77.76
2019-03-05T10:28:15.940Z,76.70
2019-03-05T10:30:44.343Z,77.75
2019-03-05T10:33:14.050Z,78.46
2019-03-05T10:35:42.520Z,78.24
2019-03-05T10:38:11.933Z,78.90
2019-03-05T10:40:46.468Z,78.97
2019-03-05T10:43:15.936Z,80.74
2019-03-05T10:45:47.679Z,79.62
2019-03-05T10:48:21.171Z,80.46
2019-03-05T10:50:49.551Z,81.15
2019-03-05T10:53:17.858Z,80.39
2019-03-05T10:55:46.085Z,81.11
2019-03-05T10:58:16.766Z,81.16
2019-03-05T11:00:55.842Z,81.07
2019-03-05T11:03:26.779Z,82.32
2019-03-05T11:05:55.082Z,82.18
2019-03-05T11:08:24.846Z,82.87
2019-03-05T11:10:53.968Z,83.04
2019-03-05T11:13:22.273Z,83.64
2019-03-05T11:15:53.671Z,83.03
2019-03-05T11:18:29.434Z,82.83
2019-03-05T11:20:52.353Z,83.55
2019-03-05T11:23:20.595Z,83.17
2019-03-05T11:25:49.125Z,83.46
2019-03-05T11:28:17.490Z,83.74
2019-03-05T11:30:45.680Z,83.28
2019-03-05T11:33:13.988Z,83.70
2019-03-05T11:35:42.443Z,81.96
2019-03-05T11:38:11.017Z,82.21
2019-03-05T11:40:39.517Z,81.77
2019-03-05T11:43:12.950Z,80.29
2019-03-05T11:45:42.335Z,81.50
2019-03-05T11:48:10.874Z,81.25
2019-03-05T11:50:39.114Z,81.69
2019-03-05T11:53:07.359Z,81.14
2019-03-05T11:55:35.833Z,81.43
2019-03-05T11:58:04.072Z,81.05
2019-03-05T12:00:43.899Z,81.50
2019-03-05T12:03:12.129Z,80.59
2019-03-05T12:05:40.594Z,80.23
2019-03-05T12:08:08.822Z,80.13
2019-03-05T12:10:37.064Z,79.90
2019-03-05T12:13:05.468Z,80.28
2019-03-05T12:15:36.873Z,79.91
2019-03-05T12:18:05.280Z,79.79
2019-03-05T12:20:33.534Z,79.40
2019-03-05T12:23:02.472Z,79.67
2019-03-05T12:25:31.088Z,80.14
2019-03-05T12:28:09.766Z,79.17
2019-03-05T12:30:31.152Z,79.57
2019-03-05T12:32:59.572Z,79.72
2019-03-05T12:35:27.822Z,81.00
2019-03-05T12:37:56.049Z,79.52
2019-03-05T12:40:25.430Z,79.49
2019-03-05T12:42:53.670Z,80.60
2019-03-05T12:45:23.381Z,79.92
2019-03-05T12:47:52.046Z,80.11
2019-03-05T12:50:28.518Z,80.03
2019-03-05T12:52:57.125Z,80.34
2019-03-05T12:55:25.743Z,80.33
2019-03-05T12:57:53.976Z,80.52
2019-03-05T13:00:26.197Z,80.78
2019-03-05T13:02:54.564Z,80.40
2019-03-05T13:05:23.206Z,80.59
2019-03-05T13:07:52.513Z,78.34
2019-03-05T13:10:35.269Z,78.79
2019-03-05T13:12:58.772Z,78.48
2019-03-05T13:15:31.910Z,77.29
2019-03-05T13:18:00.139Z,77.89
2019-03-05T13:20:28.381Z,76.43
2019-03-05T13:22:56.610Z,77.61
2019-03-05T13:25:28.412Z,77.24
2019-03-05T13:27:57.558Z,77.47
2019-03-05T13:30:27.089Z,76.89
2019-03-05T13:32:59.245Z,75.34
2019-03-05T13:35:30.259Z,74.25
2019-03-05T13:37:58.897Z,72.00
2019-03-05T13:40:30.105Z,71.42
2019-03-05T13:42:59.051Z,72.16
2019-03-05T13:45:27.618Z,71.91
2019-03-05T13:48:08.246Z,71.20
2019-03-05T13:50:48.660Z,68.36
2019-03-05T13:53:36.758Z,66.90
2019-03-05T13:56:20.143Z,68.61
2019-03-05T13:59:09.167Z,68.30
2019-03-05T14:01:37.642Z,67.28
2019-03-05T14:04:17.983Z,66.58
2019-03-05T14:07:04.692Z,64.31
2019-03-05T14:09:31.927Z,63.68
2019-03-05T14:12:00.157Z,61.94
2019-03-05T14:14:28.398Z,61.18
2019-03-05T14:16:58.650Z,62.06
2019-03-05T14:19:27.141Z,61.91
2019-03-05T14:21:55.398Z,60.41
2019-03-05T14:24:23.623Z,60.50
2019-03-05T14:26:51.847Z,60.14
2019-03-05T14:29:20.203Z,59.96
2019-03-05T14:31:48.445Z,58.46
2019-03-05T14:34:16.934Z,58.92
2019-03-05T14:36:45.167Z,59.34
2019-03-05T14:39:26.422Z,58.24
2019-03-05T14:41:54.781Z,57.37
2019-03-05T14:44:23.042Z,56.30
2019-03-05T14:46:56.376Z,57.93
2019-03-05T14:49:24.616Z,57.17
2019-03-05T14:51:52.844Z,54.51
2019-03-05T14:54:21.764Z,53.46
2019-03-05T14:56:50.495Z,54.14
2019-03-05T14:59:19.050Z,52.63
2019-03-05T15:01:47.431Z,52.41
2019-03-05T15:04:15.690Z,52.99
2019-03-05T15:06:44.038Z,52.64
2019-03-05T15:09:12.330Z,52.41
2019-03-05T15:11:40.532Z,51.65
2019-03-05T15:14:09.057Z,51.68
2019-03-05T15:16:37.301Z,50.26
2019-03-05T15:19:05.738Z,51.01
2019-03-05T15:21:34.220Z,51.14
2019-03-05T15:24:02.521Z,51.44
2019-03-05T15:26:30.782Z,50.99
2019-03-05T15:28:59.035Z,50.61
2019-03-05T15:31:27.478Z,49.73
2019-03-05T15:33:55.755Z,49.77
2019-03-05T15:36:24.297Z,50.41
2019-03-05T15:38:52.904Z,49.92
2019-03-05T15:41:21.187Z,50.23
2019-03-05T15:43:49.375Z,50.05
2019-03-05T15:46:17.959Z,49.94
2019-03-05T15:48:46.393Z,49.01
2019-03-05T15:51:14.660Z,49.37
2019-03-05T15:56:11.419Z,49.95
2019-03-05T15:58:39.893Z,48.77
2019-03-05T16:01:09.927Z,48.57
2019-03-05T16:03:38.355Z,49.03
2019-03-05T16:06:06.901Z,49.49
2019-03-05T16:08:35.393Z,50.38
2019-03-05T16:11:03.962Z,49.93
2019-03-05T16:13:32.778Z,49.99
2019-03-05T16:16:01.068Z,50.70
2019-03-05T16:18:29.301Z,50.86
2019-03-05T16:20:58.116Z,51.65
2019-03-05T16:23:28.402Z,51.91
2019-03-05T16:25:57.827Z,52.31
2019-03-05T16:28:26.287Z,53.16
2019-03-05T16:30:59.066Z,53.75
2019-03-05T16:33:32.485Z,54.52
2019-03-05T16:36:00.815Z,54.95
2019-03-05T16:38:51.119Z,54.84
2019-03-05T16:41:23.645Z,55.26
2019-03-05T16:43:56.245Z,55.37
2019-03-05T16:46:26.130Z,56.22
2019-03-05T16:49:01.782Z,55.82
2019-03-05T16:51:34.650Z,55.69
2019-03-05T16:54:07.058Z,56.47
2019-03-05T16:56:45.594Z,56.53
2019-03-05T16:59:18.399Z,56.80
2019-03-05T17:01:48.350Z,56.84
2019-03-05T17:04:21.240Z,57.24
2019-03-05T17:07:07.693Z,57.23
2019-03-05T17:09:46.795Z,57.19
2019-03-05T17:12:15.368Z,57.72
2019-03-05T17:14:43.600Z,58.38
2019-03-05T17:17:11.973Z,58.66
2019-03-05T17:19:40.497Z,59.38
2019-03-05T17:22:08.741Z,60.34
2019-03-05T17:24:36.968Z,61.10
2019-03-05T17:27:05.196Z,62.09
2019-03-05T17:29:33.665Z,61.65
2019-03-05T17:32:02.301Z,63.09
2019-03-05T17:34:30.537Z,63.11
2019-03-05T17:36:59.067Z,63.24
2019-03-05T17:39:27.542Z,63.82
2019-03-05T17:41:55.764Z,64.88
2019-03-05T17:44:24.002Z,64.61
2019-03-05T17:46:52.459Z,65.55
2019-03-05T17:49:20.710Z,65.65
2019-03-05T17:51:48.936Z,65.92
2019-03-05T17:54:17.178Z,66.41
2019-03-05T17:56:45.408Z,66.84
2019-03-05T17:59:13.957Z,66.65
2019-03-05T18:01:42.437Z,66.55
2019-03-05T18:04:10.685Z,67.32
2019-03-05T18:06:38.912Z,67.07
2019-03-05T18:09:07.704Z,67.01
2019-03-05T18:11:36.373Z,66.86
2019-03-05T18:14:04.917Z,67.23
2019-03-05T18:16:33.147Z,67.73
2019-03-05T18:19:01.390Z,67.50
2019-03-05T18:21:29.625Z,67.85
2019-03-05T18:23:58.028Z,68.69
2019-03-05T18:26:26.261Z,68.19
2019-03-05T18:28:54.531Z,68.69
2019-03-05T18:31:22.776Z,68.76
2019-03-05T18:33:51.271Z,68.39
2019-03-05T18:36:19.921Z,68.92
2019-03-05T18:38:48.149Z,68.79
2019-03-05T18:41:16.634Z,68.96
2019-03-05T18:43:45.196Z,68.99
2019-03-05T18:46:13.900Z,69.49
2019-03-05T18:48:42.212Z,69.65
2019-03-05T18:51:10.759Z,69.78
2019-03-05T18:53:38.997Z,69.78
2019-03-05T18:56:07.239Z,70.51
2019-03-05T18:58:35.497Z,70.76
2019-03-05T19:01:03.734Z,71.34
2019-03-05T19:03:31.970Z,71.39
2019-03-05T19:06:00.212Z,70.87
2019-03-05T19:08:28.458Z,71.15
2019-03-05T19:10:56.706Z,72.03
2019-03-05T19:13:25.550Z,71.86
2019-03-05T19:15:54.043Z,72.09
2019-03-05T19:18:22.621Z,73.54
2019-03-05T19:20:50.934Z,71.49
2019-03-05T19:23:19.182Z,71.67
2019-03-05T19:25:48.593Z,71.83
2019-03-05T19:28:16.829Z,72.24
2019-03-05T19:30:52.109Z,72.84
2019-03-05T19:33:20.412Z,71.97
2019-03-05T19:35:48.641Z,73.57
2019-03-05T19:38:17.334Z,72.31
2019-03-05T19:40:47.326Z,74.15
2019-03-05T19:43:15.571Z,72.84
2019-03-05T19:45:43.786Z,73.76
2019-03-05T19:48:12.023Z,74.33
2019-03-05T19:50:40.488Z,74.02
2019-03-05T19:53:08.721Z,75.26
2019-03-05T19:55:36.947Z,73.84
2019-03-05T19:58:08.166Z,74.07
2019-03-05T20:00:39.592Z,73.82
2019-03-05T20:03:07.999Z,73.94
2019-03-05T20:05:36.230Z,73.78
2019-03-05T20:08:04.536Z,74.58
2019-03-05T20:10:37.314Z,73.98
2019-03-05T20:13:05.771Z,75.09
2019-03-05T20:15:34.004Z,74.93
2019-03-05T20:18:02.235Z,75.74
2019-03-05T20:20:30.461Z,74.91
2019-03-05T20:22:58.709Z,74.46
2019-03-05T20:25:28.878Z,74.52
2019-03-05T20:27:57.106Z,74.52
2019-03-05T20:30:25.610Z,75.04
2019-03-05T20:32:53.837Z,74.67
2019-03-05T20:35:22.294Z,75.57
2019-03-05T20:37:50.524Z,74.64
2019-03-05T20:40:32.054Z,74.64
2019-03-05T20:43:02.222Z,74.77
2019-03-05T20:45:35.099Z,75.17
2019-03-05T20:48:03.396Z,75.17
2019-03-05T20:50:31.905Z,77.13
2019-03-05T20:53:00.365Z,77.29
2019-03-05T20:55:28.598Z,77.67
2019-03-05T20:57:56.829Z,76.12
2019-03-05T21:00:35.298Z,75.77
2019-03-05T21:03:06.698Z,76.54
2019-03-05T21:05:40.651Z,76.54
2019-03-05T21:08:09.102Z,76.39
2019-03-05T21:10:37.333Z,75.80
2019-03-05T21:13:05.627Z,75.80
2019-03-05T21:15:35.013Z,76.73
2019-03-05T21:18:05.523Z,76.73
2019-03-05T21:20:33.990Z,76.00
2019-03-05T21:23:02.442Z,77.95
2019-03-05T21:25:30.959Z,77.95
2019-03-05T21:27:59.183Z,77.84
2019-03-05T21:30:28.158Z,76.76
2019-03-05T21:32:56.382Z,77.65
2019-03-05T21:35:24.834Z,77.65
2019-03-05T21:37:53.251Z,77.35
2019-03-05T21:40:24.079Z,77.35
2019-03-05T21:42:52.652Z,77.83
2019-03-05T21:45:27.250Z,77.71
2019-03-05T21:47:55.718Z,79.04
2019-03-05T21:50:23.950Z,78.62
2019-03-05T21:52:52.407Z,79.14
2019-03-05T21:55:20.885Z,78.40
2019-03-05T21:57:49.123Z,78.40
2019-03-05T22:00:22.725Z,77.60
2019-03-05T22:02:50.958Z,77.60
2019-03-05T22:05:19.188Z,78.79
2019-03-05T22:07:47.489Z,77.80
2019-03-05T22:10:18.323Z,78.06
2019-03-05T22:12:46.633Z,78.41
2019-03-05T22:15:17.104Z,77.94
2019-03-05T22:17:45.337Z,78.68
2019-03-05T22:20:15.402Z,78.00
2019-03-05T22:22:43.862Z,77.83
2019-03-05T22:25:14.806Z,78.20
2019-03-05T22:27:43.045Z,78.40
2019-03-05T22:30:14.712Z,77.93
2019-03-05T22:32:43.226Z,77.67
2019-03-05T22:35:11.641Z,78.12
2019-03-05T22:37:40.004Z,78.12
2019-03-05T22:40:13.601Z,78.69
2019-03-05T22:42:41.830Z,79.01
2019-03-05T22:45:15.414Z,78.29
2019-03-05T22:47:43.624Z,78.29
2019-03-05T22:50:13.492Z,78.68
2019-03-05T22:52:41.765Z,77.39
2019-03-05T22:55:12.651Z,77.20
2019-03-05T22:57:40.893Z,77.20
2019-03-05T23:00:15.613Z,77.39
2019-03-05T23:02:43.937Z,78.03
2019-03-05T23:05:12.903Z,78.50
2019-03-05T23:07:41.167Z,78.50
2019-03-05T23:10:11.605Z,77.75
2019-03-05T23:12:39.940Z,77.75
2019-03-05T23:15:13.153Z,79.31
2019-03-05T23:17:41.412Z,78.95
2019-03-05T23:20:11.576Z,78.95
2019-03-05T23:22:39.880Z,77.81
2019-03-05T23:25:09.679Z,77.20
2019-03-05T23:27:38.408Z,76.87
2019-03-05T23:30:16.004Z,76.85
2019-03-05T23:32:44.235Z,76.57
2019-03-05T23:35:14.353Z,76.75
2019-03-05T23:37:42.600Z,76.94
2019-03-05T23:40:11.986Z,77.06
2019-03-05T23:42:40.219Z,77.71
2019-03-05T23:45:11.013Z,77.33
2019-03-05T23:47:39.732Z,77.08
2019-03-05T23:50:15.027Z,77.58
2019-03-05T23:52:43.342Z,77.57
2019-03-05T23:55:12.649Z,77.42
2019-03-05T23:57:40.875Z,77.87
